sensor_id;sensor_type;location;lat;lon;timestamp;temperature;humidity
24472;DHT22;12636;50.852;5.676;2024-03-29T00:01:12;9.10;99.90
24472;DHT22;12636;50.852;5.676;2024-03-29T00:03:38;9.10;99.90
24472;DHT22;12636;50.852;5.676;2024-03-29T00:06:04;9.10;99.90
24472;DHT22;12636;50.852;5.676;2024-03-29T00:08:30;9.00;1.00
24472;DHT22;12636;50.852;5.676;2024-03-29T00:10:56;9.00;1.00
24472;DHT22;12636;50.852;5.676;2024-03-29T00:13:21;9.00;1.00
24472;DHT22;12636;50.852;5.676;2024-03-29T00:15:47;9.10;1.00
24472;DHT22;12636;50.852;5.676;2024-03-29T00:18:15;9.10;1.00
24472;DHT22;12636;50.852;5.676;2024-03-29T00:20:40;9.10;1.00
24472;DHT22;12636;50.852;5.676;2024-03-29T00:23:06;9.20;1.00
24472;DHT22;12636;50.852;5.676;2024-03-29T00:25:32;9.30;1.00
24472;DHT22;12636;50.852;5.676;2024-03-29T00:27:58;9.30;1.00
24472;DHT22;12636;50.852;5.676;2024-03-29T00:30:24;9.20;1.00
24472;DHT22;12636;50.852;5.676;2024-03-29T00:32:50;9.10;1.00
24472;DHT22;12636;50.852;5.676;2024-03-29T00:35:17;9.20;1.00
24472;DHT22;12636;50.852;5.676;2024-03-29T00:37:43;9.30;1.00
24472;DHT22;12636;50.852;5.676;2024-03-29T00:40:09;9.30;1.00
24472;DHT22;12636;50.852;5.676;2024-03-29T00:42:35;9.20;1.00
24472;DHT22;12636;50.852;5.676;2024-03-29T00:45:01;9.30;1.00
24472;DHT22;12636;50.852;5.676;2024-03-29T00:47:27;9.30;1.00
24472;DHT22;12636;50.852;5.676;2024-03-29T00:49:53;9.30;1.00
24472;DHT22;12636;50.852;5.676;2024-03-29T00:52:20;9.30;1.00
24472;DHT22;12636;50.852;5.676;2024-03-29T00:54:46;9.40;1.00
24472;DHT22;12636;50.852;5.676;2024-03-29T00:57:12;9.40;1.00
24472;DHT22;12636;50.852;5.676;2024-03-29T00:59:38;9.50;1.00
24472;DHT22;12636;50.852;5.676;2024-03-29T01:02:04;9.60;99.90
24472;DHT22;12636;50.852;5.676;2024-03-29T01:04:29;9.60;99.90
24472;DHT22;12636;50.852;5.676;2024-03-29T01:06:55;9.70;99.90
24472;DHT22;12636;50.852;5.676;2024-03-29T01:09:23;9.70;99.90
24472;DHT22;12636;50.852;5.676;2024-03-29T01:11:49;9.80;99.90
24472;DHT22;12636;50.852;5.676;2024-03-29T01:14:15;9.80;99.90
24472;DHT22;12636;50.852;5.676;2024-03-29T01:16:41;9.80;99.90
24472;DHT22;12636;50.852;5.676;2024-03-29T01:19:07;9.90;99.90
24472;DHT22;12636;50.852;5.676;2024-03-29T01:21:34;10.00;99.90
24472;DHT22;12636;50.852;5.676;2024-03-29T01:24:00;10.00;99.90
24472;DHT22;12636;50.852;5.676;2024-03-29T01:26:27;10.00;99.90
24472;DHT22;12636;50.852;5.676;2024-03-29T01:28:53;10.00;99.90
24472;DHT22;12636;50.852;5.676;2024-03-29T01:31:19;10.00;99.90
24472;DHT22;12636;50.852;5.676;2024-03-29T01:33:45;10.10;19.10
24472;DHT22;12636;50.852;5.676;2024-03-29T01:36:11;10.20;1.00
24472;DHT22;12636;50.852;5.676;2024-03-29T01:38:37;10.30;1.00
24472;DHT22;12636;50.852;5.676;2024-03-29T01:41:03;10.30;1.00
24472;DHT22;12636;50.852;5.676;2024-03-29T01:43:30;10.40;1.00
24472;DHT22;12636;50.852;5.676;2024-03-29T01:45:57;10.40;1.00
24472;DHT22;12636;50.852;5.676;2024-03-29T01:48:24;10.40;1.00
24472;DHT22;12636;50.852;5.676;2024-03-29T01:50:52;10.40;1.00
24472;DHT22;12636;50.852;5.676;2024-03-29T01:53:20;10.40;1.00
24472;DHT22;12636;50.852;5.676;2024-03-29T01:55:47;10.40;1.00
24472;DHT22;12636;50.852;5.676;2024-03-29T01:58:14;10.40;1.00
24472;DHT22;12636;50.852;5.676;2024-03-29T02:00:44;10.40;1.00
24472;DHT22;12636;50.852;5.676;2024-03-29T02:03:15;10.30;1.00
24472;DHT22;12636;50.852;5.676;2024-03-29T02:05:42;10.30;1.00
24472;DHT22;12636;50.852;5.676;2024-03-29T02:08:09;10.30;1.00
24472;DHT22;12636;50.852;5.676;2024-03-29T02:10:36;10.30;1.00
24472;DHT22;12636;50.852;5.676;2024-03-29T02:13:03;10.30;1.00
24472;DHT22;12636;50.852;5.676;2024-03-29T02:15:30;10.10;1.00
24472;DHT22;12636;50.852;5.676;2024-03-29T02:17:59;9.90;99.90
24472;DHT22;12636;50.852;5.676;2024-03-29T02:20:26;9.60;1.00
24472;DHT22;12636;50.852;5.676;2024-03-29T02:22:53;9.40;1.00
24472;DHT22;12636;50.852;5.676;2024-03-29T02:25:22;9.10;1.00
24472;DHT22;12636;50.852;5.676;2024-03-29T02:27:48;9.00;99.90
24472;DHT22;12636;50.852;5.676;2024-03-29T02:30:16;8.80;1.00
24472;DHT22;12636;50.852;5.676;2024-03-29T02:32:43;8.70;1.00
24472;DHT22;12636;50.852;5.676;2024-03-29T02:35:10;8.60;99.90
24472;DHT22;12636;50.852;5.676;2024-03-29T02:37:37;8.50;1.00
24472;DHT22;12636;50.852;5.676;2024-03-29T02:40:04;8.30;1.00
24472;DHT22;12636;50.852;5.676;2024-03-29T02:42:33;8.30;1.00
24472;DHT22;12636;50.852;5.676;2024-03-29T02:45:01;8.20;1.00
24472;DHT22;12636;50.852;5.676;2024-03-29T02:47:28;8.10;1.00
24472;DHT22;12636;50.852;5.676;2024-03-29T02:49:54;8.10;1.00
24472;DHT22;12636;50.852;5.676;2024-03-29T02:52:20;8.00;1.00
24472;DHT22;12636;50.852;5.676;2024-03-29T02:54:46;8.00;1.00
24472;DHT22;12636;50.852;5.676;2024-03-29T02:57:13;7.90;1.00
24472;DHT22;12636;50.852;5.676;2024-03-29T02:59:40;7.80;1.00
24472;DHT22;12636;50.852;5.676;2024-03-29T03:02:07;7.80;1.00
24472;DHT22;12636;50.852;5.676;2024-03-29T03:04:33;7.70;1.00
24472;DHT22;12636;50.852;5.676;2024-03-29T03:07:00;7.70;1.00
24472;DHT22;12636;50.852;5.676;2024-03-29T03:09:51;7.60;1.00
24472;DHT22;12636;50.852;5.676;2024-03-29T03:12:36;7.60;1.00
24472;DHT22;12636;50.852;5.676;2024-03-29T03:15:05;7.60;18.00
24472;DHT22;12636;50.852;5.676;2024-03-29T03:17:32;7.50;37.10
24472;DHT22;12636;50.852;5.676;2024-03-29T03:19:58;7.50;69.30
24472;DHT22;12636;50.852;5.676;2024-03-29T03:22:24;7.50;93.70
24472;DHT22;12636;50.852;5.676;2024-03-29T03:24:51;7.40;99.90
24472;DHT22;12636;50.852;5.676;2024-03-29T03:27:17;7.40;99.90
24472;DHT22;12636;50.852;5.676;2024-03-29T03:29:44;7.40;99.90
24472;DHT22;12636;50.852;5.676;2024-03-29T03:32:11;7.30;99.90
24472;DHT22;12636;50.852;5.676;2024-03-29T03:34:38;7.30;99.90
24472;DHT22;12636;50.852;5.676;2024-03-29T03:37:04;7.30;99.90
24472;DHT22;12636;50.852;5.676;2024-03-29T03:39:31;7.30;99.90
24472;DHT22;12636;50.852;5.676;2024-03-29T03:41:57;7.20;99.90
24472;DHT22;12636;50.852;5.676;2024-03-29T03:44:24;7.20;99.90
24472;DHT22;12636;50.852;5.676;2024-03-29T03:46:50;7.20;99.90
24472;DHT22;12636;50.852;5.676;2024-03-29T03:49:18;7.20;99.90
24472;DHT22;12636;50.852;5.676;2024-03-29T03:51:44;7.10;99.90
24472;DHT22;12636;50.852;5.676;2024-03-29T03:54:11;7.20;99.90
24472;DHT22;12636;50.852;5.676;2024-03-29T03:56:37;7.10;99.90
24472;DHT22;12636;50.852;5.676;2024-03-29T03:59:04;7.00;99.90
24472;DHT22;12636;50.852;5.676;2024-03-29T04:01:30;7.10;99.90
24472;DHT22;12636;50.852;5.676;2024-03-29T04:03:56;7.00;99.90
24472;DHT22;12636;50.852;5.676;2024-03-29T04:06:24;7.00;99.90
24472;DHT22;12636;50.852;5.676;2024-03-29T04:08:50;7.00;99.90
24472;DHT22;12636;50.852;5.676;2024-03-29T04:11:16;7.00;99.90
24472;DHT22;12636;50.852;5.676;2024-03-29T04:13:45;7.00;99.90
24472;DHT22;12636;50.852;5.676;2024-03-29T04:16:11;6.90;99.90
24472;DHT22;12636;50.852;5.676;2024-03-29T04:18:38;6.90;99.90
24472;DHT22;12636;50.852;5.676;2024-03-29T04:21:04;7.00;99.90
24472;DHT22;12636;50.852;5.676;2024-03-29T04:23:32;7.00;99.90
24472;DHT22;12636;50.852;5.676;2024-03-29T04:25:59;6.90;99.90
24472;DHT22;12636;50.852;5.676;2024-03-29T04:28:25;6.90;99.90
24472;DHT22;12636;50.852;5.676;2024-03-29T04:30:53;6.90;99.90
24472;DHT22;12636;50.852;5.676;2024-03-29T04:33:18;6.90;99.90
24472;DHT22;12636;50.852;5.676;2024-03-29T04:35:53;6.90;99.90
24472;DHT22;12636;50.852;5.676;2024-03-29T04:38:19;6.90;99.90
24472;DHT22;12636;50.852;5.676;2024-03-29T04:40:48;6.90;99.90
24472;DHT22;12636;50.852;5.676;2024-03-29T04:43:15;6.80;99.90
24472;DHT22;12636;50.852;5.676;2024-03-29T04:45:43;6.80;99.90
24472;DHT22;12636;50.852;5.676;2024-03-29T04:48:10;6.80;99.90
24472;DHT22;12636;50.852;5.676;2024-03-29T04:50:37;6.80;99.90
24472;DHT22;12636;50.852;5.676;2024-03-29T04:53:04;6.80;99.90
24472;DHT22;12636;50.852;5.676;2024-03-29T04:55:30;6.80;99.90
24472;DHT22;12636;50.852;5.676;2024-03-29T04:57:59;6.70;99.90
24472;DHT22;12636;50.852;5.676;2024-03-29T05:00:26;6.80;99.90
24472;DHT22;12636;50.852;5.676;2024-03-29T05:02:52;6.80;99.90
24472;DHT22;12636;50.852;5.676;2024-03-29T05:05:19;6.80;99.90
24472;DHT22;12636;50.852;5.676;2024-03-29T05:07:46;6.80;99.90
24472;DHT22;12636;50.852;5.676;2024-03-29T05:10:13;6.80;99.90
24472;DHT22;12636;50.852;5.676;2024-03-29T05:12:42;6.80;99.90
24472;DHT22;12636;50.852;5.676;2024-03-29T05:15:10;6.90;99.90
24472;DHT22;12636;50.852;5.676;2024-03-29T05:17:37;6.90;99.90
24472;DHT22;12636;50.852;5.676;2024-03-29T05:20:06;6.90;99.90
24472;DHT22;12636;50.852;5.676;2024-03-29T05:22:33;6.90;99.90
24472;DHT22;12636;50.852;5.676;2024-03-29T05:25:00;7.00;99.90
24472;DHT22;12636;50.852;5.676;2024-03-29T05:27:27;7.10;99.90
24472;DHT22;12636;50.852;5.676;2024-03-29T05:29:54;7.10;99.90
24472;DHT22;12636;50.852;5.676;2024-03-29T05:32:22;7.10;99.90
24472;DHT22;12636;50.852;5.676;2024-03-29T05:34:49;7.20;99.90
24472;DHT22;12636;50.852;5.676;2024-03-29T05:37:16;7.20;99.90
24472;DHT22;12636;50.852;5.676;2024-03-29T05:39:43;7.20;99.90
24472;DHT22;12636;50.852;5.676;2024-03-29T05:42:11;7.10;99.90
24472;DHT22;12636;50.852;5.676;2024-03-29T05:44:38;7.10;99.90
24472;DHT22;12636;50.852;5.676;2024-03-29T05:47:05;7.20;99.90
24472;DHT22;12636;50.852;5.676;2024-03-29T05:49:33;7.10;99.90
24472;DHT22;12636;50.852;5.676;2024-03-29T05:52:00;7.20;99.90
24472;DHT22;12636;50.852;5.676;2024-03-29T05:54:27;7.20;99.90
24472;DHT22;12636;50.852;5.676;2024-03-29T05:56:54;7.30;99.90
24472;DHT22;12636;50.852;5.676;2024-03-29T05:59:21;7.40;99.90
24472;DHT22;12636;50.852;5.676;2024-03-29T06:01:48;7.30;99.90
24472;DHT22;12636;50.852;5.676;2024-03-29T06:04:15;7.40;99.90
24472;DHT22;12636;50.852;5.676;2024-03-29T06:06:46;7.40;99.90
24472;DHT22;12636;50.852;5.676;2024-03-29T06:09:13;7.40;99.90
24472;DHT22;12636;50.852;5.676;2024-03-29T06:11:41;7.40;99.90
24472;DHT22;12636;50.852;5.676;2024-03-29T06:14:08;7.50;99.90
24472;DHT22;12636;50.852;5.676;2024-03-29T06:16:52;7.50;99.90
24472;DHT22;12636;50.852;5.676;2024-03-29T06:19:37;7.50;99.90
24472;DHT22;12636;50.852;5.676;2024-03-29T06:22:05;7.60;99.90
24472;DHT22;12636;50.852;5.676;2024-03-29T06:24:34;7.70;99.90
24472;DHT22;12636;50.852;5.676;2024-03-29T06:27:01;7.80;99.90
24472;DHT22;12636;50.852;5.676;2024-03-29T06:29:28;7.90;99.90
24472;DHT22;12636;50.852;5.676;2024-03-29T06:31:55;8.10;99.90
24472;DHT22;12636;50.852;5.676;2024-03-29T06:34:22;8.20;99.90
24472;DHT22;12636;50.852;5.676;2024-03-29T06:36:49;8.30;99.90
24472;DHT22;12636;50.852;5.676;2024-03-29T06:39:17;8.40;99.90
24472;DHT22;12636;50.852;5.676;2024-03-29T06:41:45;8.50;99.90
24472;DHT22;12636;50.852;5.676;2024-03-29T06:44:12;8.50;99.90
24472;DHT22;12636;50.852;5.676;2024-03-29T06:46:39;8.70;99.90
24472;DHT22;12636;50.852;5.676;2024-03-29T06:49:06;8.70;99.90
24472;DHT22;12636;50.852;5.676;2024-03-29T06:51:32;8.90;99.90
24472;DHT22;12636;50.852;5.676;2024-03-29T06:53:59;8.90;99.90
24472;DHT22;12636;50.852;5.676;2024-03-29T06:56:28;9.00;99.90
24472;DHT22;12636;50.852;5.676;2024-03-29T06:58:55;9.10;99.90
24472;DHT22;12636;50.852;5.676;2024-03-29T07:01:22;9.10;99.90
24472;DHT22;12636;50.852;5.676;2024-03-29T07:03:48;9.10;99.90
24472;DHT22;12636;50.852;5.676;2024-03-29T07:06:15;9.20;99.90
24472;DHT22;12636;50.852;5.676;2024-03-29T07:08:42;9.20;99.90
24472;DHT22;12636;50.852;5.676;2024-03-29T07:11:08;9.30;99.90
24472;DHT22;12636;50.852;5.676;2024-03-29T07:13:37;9.30;99.90
24472;DHT22;12636;50.852;5.676;2024-03-29T07:16:04;9.40;99.90
24472;DHT22;12636;50.852;5.676;2024-03-29T07:18:32;9.40;99.90
24472;DHT22;12636;50.852;5.676;2024-03-29T07:20:59;9.40;99.90
24472;DHT22;12636;50.852;5.676;2024-03-29T07:23:26;9.50;99.90
24472;DHT22;12636;50.852;5.676;2024-03-29T07:25:59;9.60;99.90
24472;DHT22;12636;50.852;5.676;2024-03-29T07:28:26;9.70;99.90
24472;DHT22;12636;50.852;5.676;2024-03-29T07:30:55;9.80;99.90
24472;DHT22;12636;50.852;5.676;2024-03-29T07:33:22;9.80;99.90
24472;DHT22;12636;50.852;5.676;2024-03-29T07:35:51;9.90;99.90
24472;DHT22;12636;50.852;5.676;2024-03-29T07:38:18;9.90;99.90
24472;DHT22;12636;50.852;5.676;2024-03-29T07:40:46;9.90;99.90
24472;DHT22;12636;50.852;5.676;2024-03-29T07:43:13;10.00;99.90
24472;DHT22;12636;50.852;5.676;2024-03-29T07:45:40;10.20;99.90
24472;DHT22;12636;50.852;5.676;2024-03-29T07:48:11;10.50;99.90
24472;DHT22;12636;50.852;5.676;2024-03-29T07:50:38;10.80;99.90
24472;DHT22;12636;50.852;5.676;2024-03-29T07:53:05;10.90;99.90
24472;DHT22;12636;50.852;5.676;2024-03-29T07:55:32;11.10;99.90
24472;DHT22;12636;50.852;5.676;2024-03-29T07:57:59;11.20;99.90
24472;DHT22;12636;50.852;5.676;2024-03-29T08:00:26;11.20;99.90
24472;DHT22;12636;50.852;5.676;2024-03-29T08:02:53;11.30;99.90
24472;DHT22;12636;50.852;5.676;2024-03-29T08:05:21;11.20;99.90
24472;DHT22;12636;50.852;5.676;2024-03-29T08:07:48;11.10;99.90
24472;DHT22;12636;50.852;5.676;2024-03-29T08:10:15;11.00;99.90
24472;DHT22;12636;50.852;5.676;2024-03-29T08:12:42;11.00;99.90
24472;DHT22;12636;50.852;5.676;2024-03-29T08:15:09;10.90;99.90
24472;DHT22;12636;50.852;5.676;2024-03-29T08:17:36;11.00;99.90
24472;DHT22;12636;50.852;5.676;2024-03-29T08:20:03;11.10;99.90
24472;DHT22;12636;50.852;5.676;2024-03-29T08:22:32;11.20;99.90
24472;DHT22;12636;50.852;5.676;2024-03-29T08:24:59;11.30;99.90
24472;DHT22;12636;50.852;5.676;2024-03-29T08:27:26;11.30;99.90
24472;DHT22;12636;50.852;5.676;2024-03-29T08:29:53;11.40;99.90
24472;DHT22;12636;50.852;5.676;2024-03-29T08:32:20;11.40;99.90
24472;DHT22;12636;50.852;5.676;2024-03-29T08:34:47;11.70;99.90
24472;DHT22;12636;50.852;5.676;2024-03-29T08:37:14;12.00;99.90
24472;DHT22;12636;50.852;5.676;2024-03-29T08:39:42;12.30;99.90
24472;DHT22;12636;50.852;5.676;2024-03-29T08:42:09;12.70;99.90
24472;DHT22;12636;50.852;5.676;2024-03-29T08:44:37;13.10;99.90
24472;DHT22;12636;50.852;5.676;2024-03-29T08:47:04;12.80;67.60
24472;DHT22;12636;50.852;5.676;2024-03-29T08:49:31;12.80;41.70
24472;DHT22;12636;50.852;5.676;2024-03-29T08:51:58;13.00;1.00
24472;DHT22;12636;50.852;5.676;2024-03-29T08:54:30;13.10;1.00
24472;DHT22;12636;50.852;5.676;2024-03-29T08:56:58;13.00;1.00
24472;DHT22;12636;50.852;5.676;2024-03-29T08:59:27;13.10;1.00
24472;DHT22;12636;50.852;5.676;2024-03-29T09:02:03;13.10;1.00
24472;DHT22;12636;50.852;5.676;2024-03-29T09:04:30;13.10;1.00
24472;DHT22;12636;50.852;5.676;2024-03-29T09:06:59;13.00;1.00
24472;DHT22;12636;50.852;5.676;2024-03-29T09:09:27;12.90;1.00
24472;DHT22;12636;50.852;5.676;2024-03-29T09:11:54;12.70;1.00
24472;DHT22;12636;50.852;5.676;2024-03-29T09:14:22;12.70;1.00
24472;DHT22;12636;50.852;5.676;2024-03-29T09:16:51;12.90;1.00
24472;DHT22;12636;50.852;5.676;2024-03-29T09:19:18;13.00;1.00
24472;DHT22;12636;50.852;5.676;2024-03-29T09:21:45;13.10;1.00
24472;DHT22;12636;50.852;5.676;2024-03-29T09:24:12;13.30;1.00
24472;DHT22;12636;50.852;5.676;2024-03-29T09:26:39;13.60;1.00
24472;DHT22;12636;50.852;5.676;2024-03-29T09:29:06;13.70;99.90
24472;DHT22;12636;50.852;5.676;2024-03-29T09:31:35;13.90;99.90
24472;DHT22;12636;50.852;5.676;2024-03-29T09:34:02;13.80;99.90
24472;DHT22;12636;50.852;5.676;2024-03-29T09:36:29;13.60;99.90
24472;DHT22;12636;50.852;5.676;2024-03-29T09:38:56;13.30;99.90
24472;DHT22;12636;50.852;5.676;2024-03-29T09:41:23;13.30;1.00
24472;DHT22;12636;50.852;5.676;2024-03-29T09:43:52;13.50;1.00
24472;DHT22;12636;50.852;5.676;2024-03-29T09:46:20;13.90;99.90
24472;DHT22;12636;50.852;5.676;2024-03-29T09:48:49;14.10;1.00
24472;DHT22;12636;50.852;5.676;2024-03-29T09:51:16;14.40;99.90
24472;DHT22;12636;50.852;5.676;2024-03-29T09:53:44;14.40;37.50
24472;DHT22;12636;50.852;5.676;2024-03-29T09:56:12;14.40;1.00
24472;DHT22;12636;50.852;5.676;2024-03-29T09:58:39;14.30;1.00
24472;DHT22;12636;50.852;5.676;2024-03-29T10:01:06;14.10;1.00
24472;DHT22;12636;50.852;5.676;2024-03-29T10:03:37;14.10;1.00
24472;DHT22;12636;50.852;5.676;2024-03-29T10:06:07;14.10;1.00
24472;DHT22;12636;50.852;5.676;2024-03-29T10:08:35;13.90;99.90
24472;DHT22;12636;50.852;5.676;2024-03-29T10:11:02;14.00;1.00
24472;DHT22;12636;50.852;5.676;2024-03-29T10:13:29;14.30;99.90
24472;DHT22;12636;50.852;5.676;2024-03-29T10:15:56;14.30;1.00
24472;DHT22;12636;50.852;5.676;2024-03-29T10:18:24;14.40;1.00
24472;DHT22;12636;50.852;5.676;2024-03-29T10:20:58;15.20;1.00
24472;DHT22;12636;50.852;5.676;2024-03-29T10:23:26;15.50;1.00
24472;DHT22;12636;50.852;5.676;2024-03-29T10:25:53;15.40;99.90
24472;DHT22;12636;50.852;5.676;2024-03-29T10:28:20;15.10;1.00
24472;DHT22;12636;50.852;5.676;2024-03-29T10:30:48;15.00;1.00
24472;DHT22;12636;50.852;5.676;2024-03-29T10:33:15;15.00;1.00
24472;DHT22;12636;50.852;5.676;2024-03-29T10:35:42;15.00;1.00
24472;DHT22;12636;50.852;5.676;2024-03-29T10:38:09;15.50;1.00
24472;DHT22;12636;50.852;5.676;2024-03-29T10:40:38;15.10;1.00
24472;DHT22;12636;50.852;5.676;2024-03-29T10:43:06;14.90;1.00
24472;DHT22;12636;50.852;5.676;2024-03-29T10:45:37;14.80;1.00
24472;DHT22;12636;50.852;5.676;2024-03-29T10:48:05;14.90;1.00
24472;DHT22;12636;50.852;5.676;2024-03-29T10:50:34;14.90;99.90
24472;DHT22;12636;50.852;5.676;2024-03-29T10:53:02;15.10;99.90
24472;DHT22;12636;50.852;5.676;2024-03-29T10:55:29;15.00;99.90
24472;DHT22;12636;50.852;5.676;2024-03-29T10:57:59;15.00;99.90
24472;DHT22;12636;50.852;5.676;2024-03-29T11:00:26;15.10;99.90
24472;DHT22;12636;50.852;5.676;2024-03-29T11:02:56;14.90;99.90
24472;DHT22;12636;50.852;5.676;2024-03-29T11:05:24;14.70;99.90
24472;DHT22;12636;50.852;5.676;2024-03-29T11:07:52;14.40;1.00
24472;DHT22;12636;50.852;5.676;2024-03-29T11:10:20;14.40;1.00
24472;DHT22;12636;50.852;5.676;2024-03-29T11:12:53;14.40;1.00
24472;DHT22;12636;50.852;5.676;2024-03-29T11:15:26;14.30;1.00
24472;DHT22;12636;50.852;5.676;2024-03-29T11:17:54;14.20;1.00
24472;DHT22;12636;50.852;5.676;2024-03-29T11:20:22;14.40;1.00
24472;DHT22;12636;50.852;5.676;2024-03-29T11:22:55;14.40;99.90
24472;DHT22;12636;50.852;5.676;2024-03-29T11:25:22;14.60;1.00
24472;DHT22;12636;50.852;5.676;2024-03-29T11:27:49;14.70;1.00
24472;DHT22;12636;50.852;5.676;2024-03-29T11:30:17;14.60;99.90
24472;DHT22;12636;50.852;5.676;2024-03-29T11:32:45;14.50;1.00
24472;DHT22;12636;50.852;5.676;2024-03-29T11:35:14;14.40;1.00
24472;DHT22;12636;50.852;5.676;2024-03-29T11:37:41;14.50;1.00
24472;DHT22;12636;50.852;5.676;2024-03-29T11:40:10;14.60;1.00
24472;DHT22;12636;50.852;5.676;2024-03-29T11:42:38;14.30;1.00
24472;DHT22;12636;50.852;5.676;2024-03-29T11:45:05;14.10;1.00
24472;DHT22;12636;50.852;5.676;2024-03-29T11:47:36;14.00;1.00
24472;DHT22;12636;50.852;5.676;2024-03-29T11:52:32;15.20;99.90
